Time;durP1;ratioP1;P1;durP2;ratioP2;P2;SDS_P1;SDS_P2;PMS_P1;PMS_P2;Temp;Humidity;BMP_temperature;BMP_pressure;BME280_temperature;BME280_humidity;BME280_pressure;Samples;Min_cycle;Max_cycle;Signal;HPM_P1;HPM_P2
2023/10/27 00:02:31;;;;;;;26.98;15.52;;;9.70;99.90;;;;;;5075982;28;20060;-77
2023/10/27 00:05:17;;;;;;;26.80;15.38;;;9.70;99.90;;;;;;5060917;28;20051;-77
2023/10/27 00:08:06;;;;;;;27.80;15.13;;;9.80;99.90;;;;;;5079266;28;20090;-75
2023/10/27 00:10:53;;;;;;;26.75;15.60;;;9.80;99.90;;;;;;5090904;28;20048;-80
2023/10/27 00:13:39;;;;;;;25.30;15.32;;;9.80;99.90;;;;;;5074099;28;20139;-77
2023/10/27 00:16:25;;;;;;;26.52;15.00;;;9.80;99.90;;;;;;5074009;28;20067;-76
2023/10/27 00:19:11;;;;;;;26.75;16.05;;;9.80;99.90;;;;;;5073469;28;20044;-83
2023/10/27 00:21:57;;;;;;;24.35;13.88;;;9.80;99.90;;;;;;5076021;28;20040;-78
2023/10/27 00:24:43;;;;;;;25.50;15.35;;;9.90;99.90;;;;;;5061409;28;20485;-82
2023/10/27 00:27:29;;;;;;;25.48;15.63;;;9.90;99.90;;;;;;5075034;28;20412;-87
2023/10/27 00:30:15;;;;;;;25.05;15.73;;;9.90;99.90;;;;;;5075915;28;20056;-83
2023/10/27 00:33:01;;;;;;;27.27;15.73;;;9.90;99.90;;;;;;5064645;28;20492;-84
2023/10/27 00:35:51;;;;;;;25.35;13.48;;;9.90;99.90;;;;;;5086961;28;20048;-80
2023/10/27 00:38:37;;;;;;;25.42;14.68;;;9.90;99.90;;;;;;5086653;28;20055;-75
2023/10/27 00:41:24;;;;;;;26.30;14.48;;;9.90;99.90;;;;;;5098514;28;20069;-80
2023/10/27 00:44:10;;;;;;;25.42;15.30;;;9.90;99.90;;;;;;5061204;28;20048;-82
2023/10/27 00:46:57;;;;;;;26.70;13.88;;;9.90;99.90;;;;;;5075352;28;20130;-86
2023/10/27 00:49:43;;;;;;;29.65;15.30;;;9.90;99.90;;;;;;5061331;28;20048;-89
2023/10/27 00:52:30;;;;;;;28.27;14.63;;;9.90;99.90;;;;;;5074454;28;20048;-83
2023/10/27 00:55:16;;;;;;;23.40;14.82;;;9.90;99.90;;;;;;5073881;28;20063;-83
2023/10/27 00:58:03;;;;;;;27.23;15.60;;;9.90;99.90;;;;;;5074475;28;20087;-89
2023/10/27 01:00:51;;;;;;;27.70;15.75;;;10.00;99.90;;;;;;5074481;28;20492;-90
2023/10/27 01:03:37;;;;;;;28.42;16.60;;;9.90;99.90;;;;;;5090375;28;20397;-85
2023/10/27 01:06:24;;;;;;;24.10;14.32;;;9.90;99.90;;;;;;5090672;28;20051;-89
2023/10/27 01:09:10;;;;;;;23.73;14.48;;;10.00;99.90;;;;;;5092284;28;20135;-86
2023/10/27 01:11:56;;;;;;;28.42;17.27;;;9.90;99.90;;;;;;5090085;28;20044;-85
2023/10/27 01:14:42;;;;;;;25.70;14.38;;;10.00;99.90;;;;;;5092338;28;20090;-79
2023/10/27 01:17:28;;;;;;;26.98;15.27;;;10.00;99.90;;;;;;5090511;28;20051;-81
2023/10/27 01:20:14;;;;;;;24.75;14.88;;;9.90;99.90;;;;;;5089541;28;20055;-88
2023/10/27 01:23:02;;;;;;;24.00;14.57;;;10.00;99.90;;;;;;5092672;28;20674;-85
2023/10/27 01:25:48;;;;;;;28.27;15.98;;;10.00;99.90;;;;;;5073843;28;20086;-89
2023/10/27 01:28:34;;;;;;;23.73;14.82;;;9.90;99.90;;;;;;5073367;28;20052;-87
2023/10/27 01:31:22;;;;;;;25.50;15.15;;;9.90;99.90;;;;;;5073025;28;20056;-82
2023/10/27 01:34:08;;;;;;;24.70;15.48;;;9.90;99.90;;;;;;5073313;28;20063;-89
2023/10/27 01:36:54;;;;;;;27.35;15.82;;;9.90;99.90;;;;;;5060697;28;20111;-85
2023/10/27 01:39:40;;;;;;;27.08;15.50;;;9.90;99.90;;;;;;5075451;28;20404;-88
2023/10/27 01:42:26;;;;;;;26.98;15.65;;;9.90;99.90;;;;;;5063095;28;20059;-84
2023/10/27 01:45:13;;;;;;;23.75;14.57;;;9.90;99.90;;;;;;5073054;28;20052;-90
2023/10/27 01:47:59;;;;;;;26.95;16.40;;;9.90;99.90;;;;;;5091810;28;20052;-80
2023/10/27 01:50:45;;;;;;;27.95;16.80;;;9.90;99.90;;;;;;5090458;28;20055;-77
2023/10/27 01:53:33;;;;;;;27.65;15.82;;;9.90;99.90;;;;;;5060025;28;20044;-85
2023/10/27 01:56:19;;;;;;;22.67;14.50;;;9.90;99.90;;;;;;5073885;28;20052;-87
2023/10/27 01:59:05;;;;;;;26.77;15.35;;;9.90;99.90;;;;;;5092113;28;20058;-83
2023/10/27 02:01:51;;;;;;;30.38;16.70;;;9.90;99.90;;;;;;5065091;28;20720;-88
2023/10/27 02:04:37;;;;;;;28.55;16.08;;;9.90;99.90;;;;;;5082918;28;20502;-81
2023/10/27 02:07:24;;;;;;;29.10;16.65;;;9.90;99.90;;;;;;5083592;28;20055;-85
2023/10/27 02:10:10;;;;;;;26.10;16.30;;;9.90;99.90;;;;;;5079981;28;20056;-87
2023/10/27 02:12:56;;;;;;;28.77;17.02;;;9.90;99.90;;;;;;5091812;28;20206;-87
2023/10/27 02:15:43;;;;;;;29.83;17.85;;;9.90;99.90;;;;;;5072692;28;20511;-75
2023/10/27 02:18:29;;;;;;;25.02;15.75;;;9.90;99.90;;;;;;5073212;28;20090;-88
2023/10/27 02:21:15;;;;;;;28.33;16.23;;;9.90;99.90;;;;;;5059725;28;20066;-89
2023/10/27 02:24:02;;;;;;;28.50;16.83;;;9.90;99.90;;;;;;5073506;28;20583;-89
2023/10/27 02:26:48;;;;;;;23.52;15.60;;;9.90;99.90;;;;;;5090588;28;20044;-85
2023/10/27 02:29:34;;;;;;;28.38;17.13;;;9.90;99.90;;;;;;5091072;28;20126;-84
2023/10/27 02:32:20;;;;;;;26.83;15.75;;;9.90;99.90;;;;;;5072945;28;20048;-82
2023/10/27 02:35:06;;;;;;;25.33;15.43;;;9.90;99.90;;;;;;5072422;28;20070;-83
2023/10/27 02:37:54;;;;;;;31.70;16.73;;;9.90;99.90;;;;;;5072546;28;20056;-84
2023/10/27 02:40:40;;;;;;;26.02;16.60;;;9.90;99.90;;;;;;5073379;28;20056;-88
2023/10/27 02:43:27;;;;;;;29.42;17.02;;;9.80;99.90;;;;;;5089830;28;20499;-84
2023/10/27 02:46:13;;;;;;;25.98;16.17;;;9.80;99.90;;;;;;5072431;28;20086;-84
2023/10/27 02:48:59;;;;;;;26.17;16.42;;;9.80;99.90;;;;;;5077689;28;20139;-76
2023/10/27 02:51:45;;;;;;;28.45;17.50;;;9.80;99.90;;;;;;5073090;28;20832;-87
2023/10/27 02:54:31;;;;;;;27.10;15.70;;;9.80;99.90;;;;;;5072199;28;20052;-80
2023/10/27 02:57:17;;;;;;;23.95;16.40;;;9.70;99.90;;;;;;5073444;28;20134;-76
2023/10/27 03:00:06;;;;;;;26.73;16.05;;;9.70;99.90;;;;;;5073802;28;20146;-77
2023/10/27 03:02:52;;;;;;;26.42;15.05;;;9.70;99.90;;;;;;5072894;28;20052;-75
2023/10/27 03:05:38;;;;;;;24.55;14.52;;;9.70;99.90;;;;;;5072209;28;20466;-77
2023/10/27 03:08:24;;;;;;;31.10;16.30;;;9.60;99.90;;;;;;5071780;28;20056;-85
2023/10/27 03:11:10;;;;;;;25.60;14.45;;;9.70;99.90;;;;;;5071588;28;20051;-81
2023/10/27 03:13:56;;;;;;;24.98;14.32;;;9.60;99.90;;;;;;5070916;28;20058;-86
2023/10/27 03:16:43;;;;;;;25.92;14.30;;;9.60;99.90;;;;;;5090218;28;20059;-78
2023/10/27 03:19:29;;;;;;;28.10;16.00;;;9.60;99.90;;;;;;5071387;28;20048;-83
2023/10/27 03:22:15;;;;;;;26.05;15.10;;;9.60;99.90;;;;;;5072146;28;20056;-82
2023/10/27 03:25:03;;;;;;;27.92;15.90;;;9.60;99.90;;;;;;5072624;28;20063;-88
2023/10/27 03:27:49;;;;;;;27.35;15.57;;;9.60;99.90;;;;;;5072455;28;20492;-78
2023/10/27 03:30:35;;;;;;;27.75;16.70;;;9.60;99.90;;;;;;5090020;28;20147;-78
2023/10/27 03:33:21;;;;;;;24.92;14.45;;;9.60;99.90;;;;;;5090041;28;20048;-78
2023/10/27 03:36:07;;;;;;;28.40;15.27;;;9.60;99.90;;;;;;5071268;28;20056;-82
2023/10/27 03:38:53;;;;;;;27.35;15.18;;;9.60;99.90;;;;;;5072598;28;20052;-85
2023/10/27 03:41:39;;;;;;;30.65;15.40;;;9.60;99.90;;;;;;5071896;28;20121;-85
2023/10/27 03:44:25;;;;;;;27.13;14.35;;;9.60;99.90;;;;;;5074172;28;20484;-79
2023/10/27 03:47:11;;;;;;;28.15;15.18;;;9.60;99.90;;;;;;5076202;28;20594;-82
2023/10/27 03:49:58;;;;;;;29.80;16.25;;;9.60;99.90;;;;;;5077060;28;20044;-72
2023/10/27 03:52:44;;;;;;;27.83;14.93;;;9.60;99.90;;;;;;5098052;28;20049;-77
2023/10/27 03:55:30;;;;;;;24.95;15.63;;;9.60;99.90;;;;;;5068780;28;20043;-78
2023/10/27 03:58:17;;;;;;;27.50;17.02;;;9.60;99.90;;;;;;5080029;28;20121;-78
2023/10/27 04:01:04;;;;;;;27.25;15.02;;;9.60;99.90;;;;;;5075621;28;20048;-79
2023/10/27 04:03:51;;;;;;;22.95;14.27;;;9.60;99.90;;;;;;5061222;28;20147;-78
2023/10/27 04:06:37;;;;;;;29.23;17.65;;;9.50;99.90;;;;;;5093666;28;20040;-84
2023/10/27 04:09:23;;;;;;;31.33;17.70;;;9.50;99.90;;;;;;5061215;28;20048;-86
2023/10/27 04:12:10;;;;;;;29.38;15.73;;;9.50;99.90;;;;;;5075417;28;20515;-78
2023/10/27 04:14:55;;;;;;;29.60;15.02;;;9.50;99.90;;;;;;5093192;28;20100;-78
2023/10/27 04:17:41;;;;;;;28.60;15.73;;;9.50;99.90;;;;;;5074721;28;20044;-73
2023/10/27 04:20:27;;;;;;;27.00;15.73;;;9.50;99.90;;;;;;5093265;28;20052;-85
2023/10/27 04:23:14;;;;;;;30.13;15.45;;;9.50;99.90;;;;;;5074932;28;20051;-83
2023/10/27 04:26:00;;;;;;;24.25;14.18;;;9.50;99.90;;;;;;5093155;28;20113;-75
2023/10/27 04:28:46;;;;;;;27.60;15.55;;;9.50;99.90;;;;;;5075595;28;20060;-79
2023/10/27 04:31:32;;;;;;;28.10;15.20;;;9.50;99.90;;;;;;5073683;28;20576;-78
2023/10/27 04:34:19;;;;;;;26.80;15.45;;;9.50;99.90;;;;;;5075706;28;20082;-86
2023/10/27 04:37:06;;;;;;;28.80;16.20;;;9.50;99.90;;;;;;5060744;28;20058;-86
2023/10/27 04:39:54;;;;;;;29.10;16.83;;;9.50;99.90;;;;;;5075517;28;20400;-79
2023/10/27 04:42:41;;;;;;;24.05;14.40;;;9.50;99.90;;;;;;5074909;28;20055;-87
2023/10/27 04:45:27;;;;;;;26.05;15.35;;;9.50;99.90;;;;;;5075239;28;20404;-88
2023/10/27 04:48:13;;;;;;;33.65;16.38;;;9.50;99.90;;;;;;5093417;28;20144;-84
2023/10/27 04:51:02;;;;;;;27.55;15.18;;;9.50;99.90;;;;;;5060784;28;20529;-89
2023/10/27 04:53:49;;;;;;;26.40;16.00;;;9.40;99.90;;;;;;5076576;28;20051;-80
2023/10/27 04:56:35;;;;;;;28.77;16.25;;;9.40;99.90;;;;;;5094247;28;20083;-85
2023/10/27 04:59:21;;;;;;;30.90;16.48;;;9.40;99.90;;;;;;5092814;28;20044;-78
2023/10/27 05:02:07;;;;;;;26.23;15.90;;;9.30;99.90;;;;;;5073711;28;20052;-83
2023/10/27 05:04:54;;;;;;;30.95;16.60;;;9.30;99.90;;;;;;5061224;28;20052;-88
2023/10/27 05:07:40;;;;;;;27.02;15.38;;;9.30;99.90;;;;;;5060890;28;20040;-78
2023/10/27 05:10:27;;;;;;;29.23;16.02;;;9.30;99.90;;;;;;5074313;28;20048;-81
2023/10/27 05:13:13;;;;;;;28.15;16.45;;;9.20;99.90;;;;;;5092144;28;20395;-76
2023/10/27 05:15:59;;;;;;;26.85;13.93;;;9.20;99.90;;;;;;5074262;28;20071;-82
2023/10/27 05:18:45;;;;;;;29.50;16.00;;;9.20;99.90;;;;;;5092023;28;20048;-87
2023/10/27 05:21:31;;;;;;;29.33;16.40;;;9.20;99.90;;;;;;5075913;28;20407;-76
2023/10/27 05:24:17;;;;;;;29.80;17.00;;;9.20;99.90;;;;;;5073910;28;20047;-81
2023/10/27 05:27:04;;;;;;;30.08;15.30;;;9.20;99.90;;;;;;5073767;28;20047;-77
2023/10/27 05:29:50;;;;;;;28.50;15.48;;;9.10;99.90;;;;;;5074194;28;20495;-81
2023/10/27 05:32:36;;;;;;;30.00;16.30;;;9.20;99.90;;;;;;5073377;28;20475;-84
2023/10/27 05:35:22;;;;;;;25.55;15.15;;;9.20;99.90;;;;;;5073774;28;20048;-77
2023/10/27 05:38:08;;;;;;;30.00;16.35;;;9.20;99.90;;;;;;5073758;28;20055;-83
2023/10/27 05:40:54;;;;;;;27.00;14.88;;;9.20;99.90;;;;;;5073689;28;20498;-79
2023/10/27 05:43:40;;;;;;;31.13;16.70;;;9.10;99.90;;;;;;5073956;28;20570;-79
2023/10/27 05:46:28;;;;;;;26.17;15.10;;;9.20;99.90;;;;;;5091765;28;20134;-78
2023/10/27 05:49:14;;;;;;;31.27;15.98;;;9.10;99.90;;;;;;5092240;28;20087;-88
2023/10/27 05:52:03;;;;;;;33.25;15.95;;;9.10;99.90;;;;;;5077466;28;20095;-89
2023/10/27 05:54:49;;;;;;;31.48;16.60;;;9.10;99.90;;;;;;5092142;28;20047;-81
2023/10/27 05:57:35;;;;;;;27.02;16.05;;;9.10;99.90;;;;;;5073808;28;20385;-85
2023/10/27 06:00:21;;;;;;;28.15;15.07;;;9.10;99.90;;;;;;5091597;28;20052;-87
2023/10/27 06:03:07;;;;;;;29.52;15.98;;;9.10;99.90;;;;;;5077323;28;20048;-81
2023/10/27 06:05:53;;;;;;;31.52;15.10;;;9.10;99.90;;;;;;5078271;28;20109;-73
2023/10/27 06:08:42;;;;;;;30.90;18.00;;;9.10;99.90;;;;;;5096216;28;20058;-79
2023/10/27 06:11:28;;;;;;;30.17;16.13;;;9.10;99.90;;;;;;5100444;28;20048;-88
2023/10/27 06:14:14;;;;;;;26.88;15.60;;;9.20;99.90;;;;;;5102675;28;20058;-74
2023/10/27 06:17:00;;;;;;;29.92;14.63;;;9.20;99.90;;;;;;5091079;28;20099;-83
2023/10/27 06:19:46;;;;;;;28.85;15.30;;;9.20;99.90;;;;;;5086950;28;20229;-81
2023/10/27 06:22:32;;;;;;;24.63;14.52;;;9.20;99.90;;;;;;5054043;28;20052;-82
2023/10/27 06:25:18;;;;;;;24.80;13.98;;;9.20;99.90;;;;;;5052249;28;20052;-79
2023/10/27 06:28:04;;;;;;;25.77;14.82;;;9.30;99.90;;;;;;5052460;28;20083;-82
2023/10/27 06:30:51;;;;;;;29.67;15.32;;;9.30;99.90;;;;;;5039375;28;20044;-84
2023/10/27 06:33:37;;;;;;;27.50;14.23;;;9.30;99.90;;;;;;5071823;28;20084;-80
2023/10/27 06:36:23;;;;;;;26.38;15.05;;;9.40;99.90;;;;;;5054008;28;20057;-78
2023/10/27 06:39:09;;;;;;;30.77;16.13;;;9.40;99.90;;;;;;5054006;28;20403;-81
2023/10/27 06:41:55;;;;;;;25.27;14.25;;;9.40;99.90;;;;;;5055863;28;20048;-82
2023/10/27 06:44:41;;;;;;;27.98;14.68;;;9.40;99.90;;;;;;5057602;28;20055;-78
2023/10/27 06:47:27;;;;;;;27.92;14.52;;;9.50;99.90;;;;;;5056777;28;20575;-89
2023/10/27 06:50:13;;;;;;;27.45;16.52;;;9.50;99.90;;;;;;5071209;28;20048;-81
2023/10/27 06:52:59;;;;;;;29.35;15.60;;;9.50;99.90;;;;;;5053375;28;20084;-84
2023/10/27 06:55:45;;;;;;;25.25;15.70;;;9.50;99.90;;;;;;5052216;28;20065;-82
2023/10/27 06:58:31;;;;;;;28.70;15.77;;;9.60;99.90;;;;;;5069608;28;20049;-77
2023/10/27 07:01:17;;;;;;;29.20;16.25;;;9.60;99.90;;;;;;5053346;28;20125;-79
2023/10/27 07:04:03;;;;;;;26.88;15.23;;;9.60;99.90;;;;;;5071391;28;20049;-89
2023/10/27 07:06:52;;;;;;;24.35;15.25;;;9.60;99.90;;;;;;5070876;28;20143;-77
2023/10/27 07:09:38;;;;;;;26.25;15.93;;;9.70;99.90;;;;;;5052917;28;20071;-76
2023/10/27 07:12:24;;;;;;;23.83;15.10;;;9.70;99.90;;;;;;5056582;28;20454;-81
2023/10/27 07:15:12;;;;;;;27.98;15.10;;;9.70;99.90;;;;;;5071026;28;20057;-80
2023/10/27 07:17:58;;;;;;;27.08;16.08;;;9.80;99.90;;;;;;5052605;28;20045;-78
2023/10/27 07:20:44;;;;;;;31.23;17.35;;;9.80;99.90;;;;;;5065175;28;20051;-86
2023/10/27 07:23:31;;;;;;;27.80;16.00;;;9.80;99.90;;;;;;5072352;28;20051;-86
2023/10/27 07:26:17;;;;;;;27.20;15.73;;;9.90;99.90;;;;;;5071476;28;20041;-84
2023/10/27 07:29:03;;;;;;;29.35;14.80;;;9.90;99.90;;;;;;5073871;28;20063;-84
2023/10/27 07:31:49;;;;;;;27.52;15.57;;;9.90;99.90;;;;;;5076340;28;20052;-74
2023/10/27 07:34:35;;;;;;;23.92;16.02;;;10.00;99.90;;;;;;5075350;28;20056;-75
2023/10/27 07:37:23;;;;;;;27.52;15.98;;;10.00;99.90;;;;;;5076679;28;20048;-86
2023/10/27 07:40:09;;;;;;;25.35;15.07;;;10.00;99.90;;;;;;5063163;28;20499;-85
2023/10/27 07:42:58;;;;;;;23.15;14.80;;;10.00;99.90;;;;;;5076433;28;20240;-81
2023/10/27 07:45:45;;;;;;;25.02;13.98;;;10.10;99.90;;;;;;5093467;28;20091;-85
2023/10/27 07:48:32;;;;;;;24.83;15.27;;;10.10;99.90;;;;;;5094524;28;20040;-85
2023/10/27 07:51:18;;;;;;;24.95;15.00;;;10.20;99.90;;;;;;5078164;28;20044;-85
2023/10/27 07:54:04;;;;;;;24.58;15.35;;;10.20;99.90;;;;;;5107173;28;20446;-80
2023/10/27 07:56:50;;;;;;;23.20;13.93;;;10.20;99.90;;;;;;5076978;28;20098;-88
2023/10/27 07:59:36;;;;;;;26.17;15.45;;;10.20;99.90;;;;;;5076142;28;20063;-88
2023/10/27 08:02:22;;;;;;;23.02;13.25;;;10.30;99.90;;;;;;5064522;28;20048;-81
2023/10/27 08:05:09;;;;;;;25.42;14.00;;;10.30;99.90;;;;;;5094280;28;20048;-77
2023/10/27 08:07:55;;;;;;;22.67;13.95;;;10.40;99.90;;;;;;5093034;28;20083;-81
2023/10/27 08:10:44;;;;;;;25.98;12.75;;;10.40;99.90;;;;;;5074272;28;20105;-79
2023/10/27 08:13:31;;;;;;;21.13;13.10;;;10.40;99.90;;;;;;5092447;28;20136;-84
2023/10/27 08:16:17;;;;;;;19.90;11.32;;;10.50;99.90;;;;;;5066338;28;20054;-76
2023/10/27 08:19:03;;;;;;;17.17;11.48;;;10.50;99.90;;;;;;5074531;28;20055;-77
2023/10/27 08:21:49;;;;;;;15.20;9.68;;;10.50;99.90;;;;;;5040715;28;20492;-80
2023/10/27 08:24:36;;;;;;;16.88;10.18;;;10.50;99.90;;;;;;5053963;28;20135;-77
2023/10/27 08:27:23;;;;;;;16.50;9.55;;;10.40;99.90;;;;;;5054714;28;20404;-88
2023/10/27 08:30:12;;;;;;;16.33;8.82;;;10.40;99.90;;;;;;5043692;28;20515;-76
2023/10/27 08:32:58;;;;;;;16.35;9.63;;;10.40;99.90;;;;;;5072955;28;20454;-80
2023/10/27 08:35:44;;;;;;;18.50;8.20;;;10.40;99.90;;;;;;5072789;28;20051;-80
2023/10/27 08:38:31;;;;;;;11.98;7.72;;;10.40;99.90;;;;;;5054694;28;20056;-90
2023/10/27 08:41:17;;;;;;;11.40;7.13;;;10.40;99.90;;;;;;5052670;28;20492;-75
2023/10/27 08:44:05;;;;;;;14.25;7.78;;;10.40;99.90;;;;;;5053903;28;20053;-87
2023/10/27 08:46:53;;;;;;;14.30;7.55;;;10.40;99.90;;;;;;5053762;28;20408;-75
2023/10/27 08:49:39;;;;;;;12.32;7.05;;;10.50;99.90;;;;;;5055110;28;20488;-87
2023/10/27 08:52:26;;;;;;;11.40;6.80;;;10.40;99.90;;;;;;5073028;28;20048;-88
2023/10/27 08:55:12;;;;;;;12.40;7.25;;;10.50;99.90;;;;;;5073073;28;20048;-90
2023/10/27 08:57:58;;;;;;;13.65;7.35;;;10.50;99.90;;;;;;5073810;28;20056;-84
2023/10/27 09:00:48;;;;;;;10.93;6.50;;;10.50;99.90;;;;;;5055170;28;20127;-85
2023/10/27 09:03:34;;;;;;;10.52;6.72;;;10.50;99.90;;;;;;5055833;28;20492;-85
2023/10/27 09:06:21;;;;;;;12.35;7.47;;;10.50;99.90;;;;;;5060588;28;20094;-84
2023/10/27 09:09:09;;;;;;;13.35;7.93;;;10.50;99.90;;;;;;5062085;28;20052;-82
2023/10/27 09:11:56;;;;;;;11.73;7.75;;;10.50;99.90;;;;;;5080562;28;20060;-75
2023/10/27 09:14:42;;;;;;;12.23;7.78;;;10.60;99.90;;;;;;5065393;28;20066;-77
2023/10/27 09:17:29;;;;;;;11.25;7.35;;;10.60;99.90;;;;;;5062106;28;20048;-79
2023/10/27 09:20:16;;;;;;;10.07;7.25;;;10.60;99.90;;;;;;5053293;28;20132;-76
2023/10/27 09:23:04;;;;;;;12.13;7.20;;;10.70;99.90;;;;;;5073815;28;20396;-73
2023/10/27 09:25:56;;;;;;;10.30;6.50;;;10.70;99.90;;;;;;5092605;28;20055;-77
2023/10/27 09:28:43;;;;;;;13.77;6.90;;;10.70;99.90;;;;;;5076311;28;20095;-86
2023/10/27 09:31:34;;;;;;;10.23;5.97;;;10.80;99.90;;;;;;5077076;28;20056;-80
2023/10/27 09:34:22;;;;;;;12.98;7.38;;;10.80;99.90;;;;;;5059686;28;20056;-79
2023/10/27 09:37:08;;;;;;;10.20;6.38;;;10.90;99.90;;;;;;5059033;28;20067;-84
2023/10/27 09:39:54;;;;;;;13.13;6.85;;;10.90;99.90;;;;;;5073399;28;20056;-85
2023/10/27 09:42:40;;;;;;;11.43;6.47;;;10.80;99.90;;;;;;5090421;28;20075;-82
2023/10/27 09:45:28;;;;;;;15.07;7.93;;;10.90;99.90;;;;;;5092805;28;20062;-74
2023/10/27 09:48:16;;;;;;;9.23;6.38;;;10.90;99.90;;;;;;5094214;28;20510;-76
2023/10/27 09:51:04;;;;;;;9.45;5.70;;;10.80;99.90;;;;;;5093441;28;20060;-79
2023/10/27 09:53:51;;;;;;;9.73;6.18;;;10.80;99.90;;;;;;5093357;28;20137;-76
2023/10/27 09:56:40;;;;;;;7.63;4.63;;;10.90;99.90;;;;;;5093268;28;20134;-75
2023/10/27 09:59:28;;;;;;;6.35;4.10;;;11.00;99.90;;;;;;5111876;28;20048;-88
2023/10/27 10:02:15;;;;;;;8.23;4.90;;;11.00;99.90;;;;;;5094799;28;20638;-82
2023/10/27 10:05:01;;;;;;;7.18;4.32;;;11.10;99.90;;;;;;5094194;28;20053;-86
2023/10/27 10:07:56;;;;;;;7.45;4.60;;;11.30;99.90;;;;;;5113279;28;20058;-88
2023/10/27 10:10:42;;;;;;;;;;;11.30;99.90;;;;;;5112059;28;20093;-78
2023/10/27 10:13:38;;;;;;;6.75;4.38;;;11.40;99.90;;;;;;5092722;28;19968;-81
2023/10/27 10:16:24;;;;;;;;;;;11.40;99.90;;;;;;5111833;28;20120;-81
2023/10/27 10:19:10;;;;;;;6.82;4.00;;;11.50;99.90;;;;;;5092846;28;20291;-79
2023/10/27 10:21:56;;;;;;;6.15;3.63;;;11.60;99.90;;;;;;5093291;28;20511;-77
2023/10/27 10:25:35;;;;;;;5.65;3.53;;;11.60;99.90;;;;;;5093071;28;20490;-85
2023/10/27 10:28:22;;;;;;;7.28;4.10;;;11.60;99.90;;;;;;5061820;28;20139;-87
2023/10/27 10:31:13;;;;;;;7.32;4.10;;;11.70;99.90;;;;;;5093485;28;20173;-80
2023/10/27 10:34:10;;;;;;;5.88;3.33;;;11.70;99.90;;;;;;5079835;28;20055;-85
2023/10/27 10:37:25;;;;;;;5.78;3.35;;;11.80;99.90;;;;;;5095290;28;20055;-88
2023/10/27 10:40:23;;;;;;;5.75;3.20;;;11.80;99.90;;;;;;5097037;28;20127;-87
2023/10/27 10:43:30;;;;;;;6.35;3.50;;;11.80;99.90;;;;;;5081517;28;20044;-82
2023/10/27 10:46:16;;;;;;;5.75;3.53;;;11.90;99.90;;;;;;5092517;28;20059;-82
2023/10/27 10:49:02;;;;;;;5.45;3.58;;;11.90;99.90;;;;;;5110309;28;20052;-80
2023/10/27 10:51:53;;;;;;;6.57;2.78;;;11.90;99.90;;;;;;5111091;28;20403;-85
2023/10/27 10:54:39;;;;;;;6.00;3.17;;;12.00;99.90;;;;;;5079868;28;20134;-75
2023/10/27 10:57:26;;;;;;;5.10;2.60;;;12.10;99.90;;;;;;5111465;28;20056;-80
2023/10/27 11:00:13;;;;;;;5.35;3.03;;;12.10;99.90;;;;;;5083715;28;20044;-76
2023/10/27 11:03:09;;;;;;;4.95;2.92;;;12.20;99.90;;;;;;5096381;28;20089;-80
2023/10/27 11:06:00;;;;;;;4.90;2.85;;;12.20;99.90;;;;;;5115683;28;20095;-84
2023/10/27 11:08:46;;;;;;;6.07;2.90;;;12.20;99.90;;;;;;5114873;28;20086;-78
2023/10/27 11:11:34;;;;;;;5.30;2.92;;;12.20;99.90;;;;;;5096595;28;20142;-74
2023/10/27 11:14:20;;;;;;;5.95;3.45;;;12.20;99.90;;;;;;5095848;28;20043;-86
2023/10/27 11:17:11;;;;;;;5.38;3.17;;;12.20;99.90;;;;;;5095961;28;20468;-76
2023/10/27 11:19:59;;;;;;;5.82;3.58;;;12.30;99.90;;;;;;5114213;28;20060;-77
2023/10/27 11:22:45;;;;;;;5.22;3.17;;;12.30;99.90;;;;;;5095505;28;20477;-81
2023/10/27 11:25:31;;;;;;;5.70;3.25;;;12.30;99.90;;;;;;5096266;28;20050;-87
2023/10/27 11:28:28;;;;;;;6.53;4.15;;;12.20;99.90;;;;;;5115107;28;20039;-84
2023/10/27 11:31:26;;;;;;;6.80;3.70;;;12.30;99.90;;;;;;5082499;28;20047;-82
2023/10/27 11:34:18;;;;;;;5.07;2.75;;;12.30;99.90;;;;;;5099627;28;20506;-84
2023/10/27 11:37:07;;;;;;;4.82;2.95;;;12.40;99.90;;;;;;5114717;28;20407;-76
2023/10/27 11:39:53;;;;;;;9.07;3.67;;;12.30;99.90;;;;;;5115543;28;20040;-89
2023/10/27 11:42:39;;;;;;;5.50;3.33;;;12.50;99.90;;;;;;5114803;28;20082;-85
2023/10/27 11:45:26;;;;;;;7.72;3.85;;;12.50;99.90;;;;;;5083451;28;20059;-85
2023/10/27 11:48:12;;;;;;;5.88;2.95;;;12.40;99.90;;;;;;5085832;28;20056;-78
2023/10/27 11:50:58;;;;;;;5.82;3.53;;;12.40;99.90;;;;;;5114858;28;20135;-82
2023/10/27 11:53:45;;;;;;;6.10;3.60;;;12.40;99.90;;;;;;5095779;28;20048;-81
2023/10/27 11:56:31;;;;;;;5.93;3.33;;;12.40;99.90;;;;;;5095932;28;20060;-79
2023/10/27 11:59:20;;;;;;;6.38;3.92;;;12.30;99.90;;;;;;5095725;28;20051;-83
2023/10/27 12:02:06;;;;;;;7.53;3.65;;;12.30;99.90;;;;;;5082783;28;20047;-76
2023/10/27 12:04:52;;;;;;;6.40;3.17;;;12.30;99.90;;;;;;5081978;28;20491;-78
2023/10/27 12:07:38;;;;;;;6.57;3.40;;;12.30;99.90;;;;;;5096221;28;20100;-74
2023/10/27 12:10:24;;;;;;;6.28;3.17;;;12.30;99.90;;;;;;5094991;28;20052;-76
2023/10/27 12:13:10;;;;;;;6.32;3.83;;;12.20;99.90;;;;;;5094635;28;20097;-81
2023/10/27 12:15:56;;;;;;;7.80;4.30;;;12.20;99.90;;;;;;5113299;28;20058;-79
2023/10/27 12:18:43;;;;;;;7.63;3.65;;;12.20;99.90;;;;;;5081988;28;20062;-73
2023/10/27 12:21:29;;;;;;;8.45;4.03;;;12.10;99.90;;;;;;5112730;28;20456;-77
2023/10/27 12:24:17;;;;;;;6.47;4.20;;;12.10;99.90;;;;;;5082496;28;20051;-79
2023/10/27 12:27:04;;;;;;;6.95;3.97;;;12.00;99.90;;;;;;5095222;28;20055;-84
2023/10/27 12:29:50;;;;;;;8.25;4.80;;;12.00;99.90;;;;;;5099583;28;20047;-79
2023/10/27 12:32:37;;;;;;;7.60;4.80;;;12.00;99.90;;;;;;5095217;28;20523;-80
2023/10/27 12:35:26;;;;;;;8.57;5.25;;;12.00;99.90;;;;;;5113436;28;20181;-84
2023/10/27 12:38:12;;;;;;;7.60;4.95;;;12.00;99.90;;;;;;5095944;28;20555;-80
2023/10/27 12:40:59;;;;;;;9.07;5.30;;;12.00;99.90;;;;;;5114745;28;20051;-81
2023/10/27 12:43:45;;;;;;;9.98;4.88;;;11.90;99.90;;;;;;5102178;28;20047;-74
2023/10/27 12:46:31;;;;;;;9.07;5.18;;;12.00;99.90;;;;;;5101444;28;20058;-72
2023/10/27 12:49:18;;;;;;;9.00;5.40;;;12.00;99.90;;;;;;5102687;28;20043;-74
2023/10/27 12:52:06;;;;;;;11.77;5.88;;;12.00;99.90;;;;;;5095447;28;20146;-78
2023/10/27 12:54:52;;;;;;;10.48;5.75;;;12.00;99.90;;;;;;5113066;28;20135;-78
2023/10/27 12:57:38;;;;;;;8.85;5.65;;;12.00;99.90;;;;;;5094223;28;20055;-83
2023/10/27 13:00:29;;;;;;;10.48;5.78;;;11.90;99.90;;;;;;5113020;28;20450;-79
2023/10/27 13:03:16;;;;;;;9.75;5.47;;;11.90;99.90;;;;;;5080676;28;20051;-87
2023/10/27 13:06:02;;;;;;;10.07;5.60;;;12.00;99.90;;;;;;5093804;28;20043;-88
2023/10/27 13:08:48;;;;;;;10.13;5.55;;;11.90;99.90;;;;;;5094200;28;20081;-89
2023/10/27 13:11:35;;;;;;;9.45;6.07;;;11.90;99.90;;;;;;5112685;28;20554;-86
2023/10/27 13:14:21;;;;;;;12.85;6.10;;;11.90;99.90;;;;;;5093808;28;20539;-91
2023/10/27 13:17:12;;;;;;;10.68;6.63;;;11.90;99.90;;;;;;5094208;28;20081;-91
2023/10/27 13:19:58;;;;;;;10.00;5.82;;;11.90;99.90;;;;;;5093698;28;20047;-90
2023/10/27 13:22:47;;;;;;;10.45;6.35;;;11.90;99.90;;;;;;5094594;28;20059;-90
2023/10/27 13:25:33;;;;;;;10.48;6.05;;;11.90;99.90;;;;;;5094639;28;20117;-83
2023/10/27 13:28:19;;;;;;;11.52;7.30;;;11.90;99.90;;;;;;5093961;28;20085;-91
2023/10/27 13:31:06;;;;;;;10.90;6.65;;;11.90;99.90;;;;;;5081245;28;20047;-90
2023/10/27 13:33:53;;;;;;;11.45;6.55;;;11.90;99.90;;;;;;5093590;28;20070;-88
2023/10/27 13:36:43;;;;;;;11.43;6.65;;;11.90;99.90;;;;;;5098897;28;20043;-91
2023/10/27 13:39:31;;;;;;;11.80;7.15;;;11.90;99.90;;;;;;5115406;28;20459;-88
2023/10/27 13:42:17;;;;;;;9.75;6.63;;;11.90;99.90;;;;;;5086928;28;20135;-89
2023/10/27 13:45:03;;;;;;;11.65;6.95;;;11.90;99.90;;;;;;5104314;28;20054;-82
2023/10/27 13:47:50;;;;;;;12.40;7.10;;;12.00;99.90;;;;;;5095950;28;20507;-81
2023/10/27 13:50:36;;;;;;;10.50;6.40;;;12.00;99.90;;;;;;5079984;28;20063;-89
2023/10/27 13:53:22;;;;;;;11.15;6.95;;;12.00;99.90;;;;;;5093558;28;20491;-91
2023/10/27 13:56:12;;;;;;;11.43;7.82;;;12.00;99.90;;;;;;5095092;28;20058;-84
2023/10/27 13:58:58;;;;;;;13.65;7.85;;;12.00;99.90;;;;;;5081615;28;20078;-89
2023/10/27 14:01:44;;;;;;;12.75;7.65;;;11.90;99.90;;;;;;5093537;28;20131;-81
2023/10/27 14:04:30;;;;;;;10.68;7.03;;;12.00;99.90;;;;;;5111511;28;20529;-81
2023/10/27 14:07:16;;;;;;;11.50;6.80;;;11.90;99.90;;;;;;5094702;28;20533;-85
2023/10/27 14:10:03;;;;;;;14.02;8.93;;;11.90;99.90;;;;;;5093612;28;20078;-76
2023/10/27 14:12:50;;;;;;;11.63;7.22;;;11.90;99.90;;;;;;5111514;28;20050;-80
2023/10/27 14:15:36;;;;;;;11.82;7.55;;;11.80;99.90;;;;;;5111689;28;20442;-88
2023/10/27 14:18:22;;;;;;;15.38;9.23;;;11.80;99.90;;;;;;5094083;28;20051;-84
2023/10/27 14:21:08;;;;;;;13.48;8.50;;;11.80;99.90;;;;;;5093092;28;20056;-89